createdAt,value
2015-09-23T00:00:44.563Z,993.8
2015-09-23T00:01:44.487Z,993.7
2015-09-23T00:02:44.428Z,993.6
2015-09-23T00:03:44.383Z,993.7
2015-09-23T00:04:44.339Z,993.7
2015-09-23T00:05:44.280Z,993.8
2015-09-23T00:06:44.236Z,993.8
2015-09-23T00:07:44.192Z,993.9
2015-09-23T00:08:44.131Z,993.8
2015-09-23T00:09:44.088Z,993.8
2015-09-23T00:10:44.028Z,993.7
2015-09-23T00:11:43.968Z,993.6
2015-09-23T00:12:43.939Z,993.8
2015-09-23T00:13:43.880Z,993.7
2015-09-23T00:14:43.851Z,993.7
2015-09-23T00:15:43.791Z,993.8
2015-09-23T00:16:43.919Z,993.7
2015-09-23T00:17:43.922Z,993.7
2015-09-23T00:18:43.658Z,993.7
2015-09-23T00:19:43.771Z,993.7
2015-09-23T00:20:43.539Z,993.8
2015-09-23T00:21:43.666Z,993.7
2015-09-23T00:22:43.451Z,993.6
2015-09-23T00:23:43.376Z,993.8
2015-09-23T00:24:43.332Z,993.8
2015-09-23T00:25:43.272Z,993.7
2015-09-23T00:26:43.228Z,993.7
2015-09-23T00:27:43.183Z,993.7
2015-09-23T00:28:43.123Z,993.7
2015-09-23T00:29:43.079Z,993.7
2015-09-23T00:30:43.020Z,993.7
2015-09-23T00:31:42.991Z,993.5
2015-09-23T00:32:42.916Z,993.7
2015-09-23T00:33:42.871Z,993.8
2015-09-23T00:34:42.812Z,993.7
2015-09-23T00:35:42.767Z,993.7
2015-09-23T00:36:42.724Z,993.8
2015-09-23T00:37:42.882Z,993.7
2015-09-23T00:38:42.620Z,993.7
2015-09-23T00:39:42.560Z,993.6
2015-09-23T00:40:42.516Z,993.7
2015-09-23T00:41:42.471Z,993.7
2015-09-23T00:42:42.442Z,993.7
2015-09-23T00:43:42.556Z,993.7
2015-09-23T00:44:42.323Z,993.7
2015-09-23T00:45:42.482Z,993.7
2015-09-23T00:46:42.204Z,993.7
2015-09-23T00:47:42.159Z,993.7
2015-09-23T00:48:42.115Z,993.7
2015-09-23T00:49:42.055Z,993.7
2015-09-23T00:50:42.215Z,993.9
2015-09-23T00:51:41.967Z,993.8
2015-09-23T00:52:41.923Z,993.8
2015-09-23T00:53:41.864Z,993.7
2015-09-23T00:54:41.803Z,993.8
2015-09-23T00:55:41.759Z,993.7
2015-09-23T00:56:41.700Z,993.9
2015-09-23T00:57:41.656Z,993.8
2015-09-23T00:58:41.596Z,993.9
2015-09-23T00:59:41.552Z,993.7
2015-09-23T01:00:41.508Z,993.8
2015-09-23T01:01:41.447Z,993.9
2015-09-23T01:02:41.419Z,993.7
2015-09-23T01:03:40.609Z,993.7
2015-09-23T01:04:41.300Z,993.6
2015-09-23T01:05:40.505Z,993.7
2015-09-23T01:06:41.196Z,993.6
2015-09-23T01:07:41.152Z,993.6
2015-09-23T01:08:41.326Z,993.5
2015-09-23T01:09:41.047Z,993.5
2015-09-23T01:10:40.988Z,993.5
2015-09-23T01:11:40.960Z,993.5
2015-09-23T01:12:40.884Z,993.5
2015-09-23T01:13:40.855Z,993.4
2015-09-23T01:14:40.793Z,993.4
2015-09-23T01:15:40.936Z,993.5
2015-09-23T01:16:40.689Z,993.3
2015-09-23T01:17:40.629Z,993.4
2015-09-23T01:18:40.585Z,993.3
2015-09-23T01:19:40.541Z,993.3
2015-09-23T01:20:40.496Z,993.2
2015-09-23T01:21:40.437Z,993.3
2015-09-23T01:22:40.393Z,993.3
2015-09-23T01:23:40.332Z,993.4
2015-09-23T01:24:40.304Z,993.3
2015-09-23T01:25:40.667Z,993.4
2015-09-23T01:26:40.184Z,993.4
2015-09-23T01:27:40.156Z,993.5
2015-09-23T01:28:40.081Z,993.5
2015-09-23T01:29:39.286Z,993.5
2015-09-23T01:30:39.976Z,993.4
2015-09-23T01:31:39.948Z,993.5
2015-09-23T01:32:39.889Z,993.6
2015-09-23T01:33:39.095Z,993.7
2015-09-23T01:36:29.914Z,993.6
2015-09-23T01:37:17.106Z,993.6
2015-09-23T01:38:17.061Z,993.6
2015-09-23T01:39:17.001Z,993.7
2015-09-23T01:40:16.942Z,993.8
2015-09-23T01:41:17.131Z,993.8
2015-09-23T01:42:16.869Z,993.8
2015-09-23T01:43:16.794Z,993.9
2015-09-23T01:44:16.593Z,993.8
2015-09-23T01:45:15.940Z,993.7
2015-09-23T01:46:16.646Z,993.7
2015-09-23T01:47:16.602Z,993.7
2015-09-23T01:48:16.542Z,993.7
2015-09-23T01:49:16.513Z,993.8
2015-09-23T01:50:16.438Z,994
2015-09-23T01:51:16.253Z,994
2015-09-23T01:52:16.349Z,994.1
2015-09-23T01:53:16.289Z,994.1
2015-09-23T01:54:16.261Z,994
2015-09-23T01:55:16.202Z,994.1
2015-09-23T01:56:16.158Z,994
2015-09-23T01:57:16.097Z,994
2015-09-23T01:58:16.053Z,994
2015-09-23T01:59:15.993Z,993.9
2015-09-23T02:00:15.949Z,993.9
2015-09-23T02:01:15.905Z,993.9
2015-09-23T02:02:15.858Z,994
2015-09-23T02:03:15.986Z,994
2015-09-23T02:04:15.974Z,993.9
2015-09-23T02:05:15.694Z,993.9
2015-09-23T02:06:15.651Z,994
2015-09-23T02:07:15.606Z,994
2015-09-23T02:08:15.546Z,994
2015-09-23T02:09:15.518Z,994
2015-09-23T02:10:15.443Z,994
2015-09-23T02:11:15.398Z,993.9
2015-09-23T02:12:15.338Z,994
2015-09-23T02:13:15.295Z,994
2015-09-23T02:14:15.234Z,993.9
2015-09-23T02:15:15.206Z,993.9
2015-09-23T02:16:15.147Z,993.9
2015-09-23T02:17:15.087Z,993.9
2015-09-23T02:18:15.044Z,993.9
2015-09-23T02:19:14.983Z,993.8
2015-09-23T02:20:14.190Z,993.9
2015-09-23T02:21:14.896Z,993.9
2015-09-23T02:22:14.851Z,993.9
2015-09-23T02:23:14.791Z,994
2015-09-23T02:24:14.747Z,993.9
2015-09-23T02:25:14.688Z,994
2015-09-23T02:26:14.643Z,994
2015-09-23T02:27:14.615Z,994.1
2015-09-23T02:28:13.805Z,994
2015-09-23T02:29:14.510Z,994.1
2015-09-23T02:30:14.452Z,994.1
2015-09-23T02:31:14.391Z,994.2
2015-09-23T02:32:14.348Z,994.2
2015-09-23T02:33:14.303Z,994.1
2015-09-23T02:34:14.446Z,994.1
2015-09-23T02:35:14.199Z,994.1
2015-09-23T02:36:14.373Z,994
2015-09-23T02:37:14.095Z,994
2015-09-23T02:38:14.239Z,994.1
2015-09-23T02:39:13.992Z,994.1
2015-09-23T02:40:13.947Z,994.1
2015-09-23T02:41:13.888Z,994.1
2015-09-23T02:42:13.859Z,994
2015-09-23T02:43:13.784Z,994
2015-09-23T02:44:13.739Z,994.1
2015-09-23T02:45:13.695Z,994.1
2015-09-23T02:46:13.636Z,994.2
2015-09-23T02:47:13.591Z,994.1
2015-09-23T02:48:13.781Z,994.2
2015-09-23T02:49:13.487Z,994.1
2015-09-23T02:50:13.459Z,994.1
2015-09-23T02:51:13.227Z,994.3
2015-09-23T02:52:13.371Z,994.1
2015-09-23T02:53:13.295Z,994.2
2015-09-23T02:54:13.251Z,994.4
2015-09-23T02:55:13.176Z,994.4
2015-09-23T02:56:13.147Z,994.4
2015-09-23T02:57:13.087Z,994.3
2015-09-23T02:58:13.043Z,994.3
2015-09-23T02:59:12.983Z,994.4
2015-09-23T03:00:12.939Z,994.5
2015-09-23T03:01:12.911Z,994.5
2015-09-23T03:02:12.836Z,994.4
2015-09-23T03:03:12.791Z,994.3
2015-09-23T03:04:12.731Z,994.4
2015-09-23T03:05:12.687Z,994.5
2015-09-23T03:06:12.627Z,994.5
2015-09-23T03:07:12.583Z,994.4
2015-09-23T03:08:12.539Z,994.4
2015-09-23T03:09:12.494Z,994.4
2015-09-23T03:10:11.701Z,994.4
2015-09-23T03:11:12.547Z,994.4
2015-09-23T03:12:12.331Z,994.4
2015-09-23T03:13:12.287Z,994.4
2015-09-23T03:14:12.224Z,994.5
2015-09-23T03:15:12.180Z,994.3
2015-09-23T03:16:12.136Z,994.4
2015-09-23T03:17:12.077Z,994.3
2015-09-23T03:18:12.032Z,994.4
2015-09-23T03:19:11.988Z,994.5
2015-09-23T03:20:11.929Z,994.5
2015-09-23T03:21:11.134Z,994.5
2015-09-23T03:22:11.840Z,994.5
2015-09-23T03:23:11.780Z,994.4
2015-09-23T03:24:11.751Z,994.3
2015-09-23T03:25:10.926Z,994.3
2015-09-23T03:26:11.663Z,994.5
2015-09-23T03:27:11.587Z,994.2
2015-09-23T03:28:11.543Z,994.3
2015-09-23T03:29:11.484Z,994.2
2015-09-23T03:30:11.440Z,994.3
2015-09-23T03:31:11.381Z,994.3
2015-09-23T03:32:10.586Z,994.2
2015-09-23T03:33:11.276Z,994.2
2015-09-23T03:34:11.232Z,994.2
2015-09-23T03:35:11.375Z,994.2
2015-09-23T03:36:11.362Z,994.2
2015-09-23T03:37:11.084Z,994
2015-09-23T03:38:11.211Z,994.1
2015-09-23T03:39:11.230Z,994.1
2015-09-23T03:40:10.967Z,994.1
2015-09-23T03:41:10.892Z,994.2
2015-09-23T03:42:10.848Z,994.3
2015-09-23T03:43:10.788Z,994.2
2015-09-23T03:44:10.744Z,994.4
2015-09-23T03:45:25.215Z,994.4
2015-09-23T03:46:11.046Z,994.4
2015-09-23T03:47:10.580Z,994.4
2015-09-23T03:48:10.552Z,994.4
2015-09-23T03:49:11.383Z,994.3
2015-09-23T03:50:10.869Z,994.4
2015-09-23T03:51:10.388Z,994.5
2015-09-23T03:52:10.344Z,994.5
2015-09-23T03:53:10.455Z,994.5
2015-09-23T03:54:10.489Z,994.5
2015-09-23T03:55:10.649Z,994.5
2015-09-23T03:56:10.511Z,994.5
2015-09-23T03:57:10.092Z,994.7
2015-09-23T03:58:10.532Z,994.7
2015-09-23T03:59:10.191Z,994.7
2015-09-23T04:00:10.460Z,994.7
2015-09-23T04:01:09.908Z,994.7
2015-09-23T04:02:10.355Z,994.8
2015-09-23T04:03:09.020Z,994.8
2015-09-23T04:04:09.701Z,994.8
2015-09-23T04:05:09.695Z,994.9
2015-09-23T04:06:08.772Z,994.9
2015-09-23T04:07:09.974Z,995
2015-09-23T04:08:09.490Z,995
2015-09-23T04:09:09.443Z,995.1
2015-09-23T04:10:09.395Z,995.2
2015-09-23T04:11:09.335Z,995.2
2015-09-23T04:12:09.290Z,995.3
2015-09-23T04:13:09.463Z,995.3
2015-09-23T04:14:09.184Z,995.2
2015-09-23T04:15:09.122Z,995.2
2015-09-23T04:16:09.280Z,995.2
2015-09-23T04:17:09.018Z,995.4
2015-09-23T04:18:09.207Z,995.2
2015-09-23T04:19:08.929Z,995.3
2015-09-23T04:20:08.866Z,995.3
2015-09-23T04:21:08.853Z,995.2
2015-09-23T04:22:08.792Z,995.3
2015-09-23T04:23:08.936Z,995.2
2015-09-23T04:24:08.671Z,995.1
2015-09-23T04:25:08.627Z,995.2
2015-09-23T04:26:08.568Z,995.2
2015-09-23T04:27:08.523Z,995.2
2015-09-23T04:28:08.464Z,995.2
2015-09-23T04:29:08.434Z,995.1
2015-09-23T04:30:08.562Z,995.1
2015-09-23T04:31:08.315Z,995.1
2015-09-23T04:32:08.271Z,995.1
2015-09-23T04:33:08.212Z,995.1
2015-09-23T04:34:08.167Z,995.1
2015-09-23T04:35:08.123Z,995.1
2015-09-23T04:36:08.079Z,995.1
2015-09-23T04:37:08.253Z,995.1
2015-09-23T04:38:07.975Z,995.2
2015-09-23T04:39:07.915Z,995.2
2015-09-23T04:40:07.872Z,995.3
2015-09-23T04:41:07.812Z,995.2
2015-09-23T04:42:07.783Z,995.3
2015-09-23T04:43:07.708Z,995.4
2015-09-23T04:44:07.898Z,995.4
2015-09-23T04:45:07.603Z,995.4
2015-09-23T04:46:07.763Z,995.4
2015-09-23T04:47:07.531Z,995.4
2015-09-23T04:48:07.456Z,995.5
2015-09-23T04:49:07.412Z,995.4
2015-09-23T04:50:07.399Z,995.4
2015-09-23T04:51:07.323Z,995.3
2015-09-23T04:52:07.248Z,995.4
2015-09-23T04:53:07.219Z,995.4
2015-09-23T04:54:07.160Z,995.6
2015-09-23T04:55:07.116Z,995.4
2015-09-23T04:56:07.071Z,995.5
2015-09-23T04:57:07.215Z,995.4
2015-09-23T04:58:06.967Z,995.4
2015-09-23T04:59:06.908Z,995.3
2015-09-23T05:00:06.880Z,995.2
2015-09-23T05:01:06.819Z,995.2
2015-09-23T05:02:06.774Z,995.3
2015-09-23T05:03:06.715Z,995.3
2015-09-23T05:04:06.687Z,995.4
2015-09-23T05:05:06.611Z,995.4
2015-09-23T05:06:06.552Z,995.4
2015-09-23T05:07:06.507Z,995.5
2015-09-23T05:08:06.463Z,995.6
2015-09-23T05:09:06.404Z,995.5
2015-09-23T05:10:06.375Z,995.6
2015-09-23T05:11:06.299Z,995.8
2015-09-23T05:12:06.255Z,995.7
2015-09-23T05:13:06.243Z,995.6
2015-09-23T05:14:06.151Z,995.6
2015-09-23T05:15:06.113Z,995.7
2015-09-23T05:16:06.053Z,995.6
2015-09-23T05:17:06.009Z,995.6
2015-09-23T05:18:05.964Z,995.8
2015-09-23T05:19:05.904Z,995.8
2015-09-23T05:20:06.095Z,995.8
2015-09-23T05:21:05.816Z,995.8
2015-09-23T05:22:05.756Z,995.8
2015-09-23T05:23:05.697Z,995.8
2015-09-23T05:24:05.653Z,995.8
2015-09-23T05:25:05.608Z,995.9
2015-09-23T05:26:05.548Z,995.9
2015-09-23T05:27:05.503Z,995.8
2015-09-23T05:28:05.461Z,996
2015-09-23T05:29:05.384Z,995.8
2015-09-23T05:30:05.355Z,995.8
2015-09-23T05:31:05.308Z,995.8
2015-09-23T05:32:05.250Z,996
2015-09-23T05:33:05.189Z,995.9
2015-09-23T05:34:05.145Z,995.9
2015-09-23T05:35:05.102Z,995.9
2015-09-23T05:36:05.042Z,995.9
2015-09-23T05:37:05.013Z,995.9
2015-09-23T05:38:04.938Z,996
2015-09-23T05:39:04.909Z,996
2015-09-23T05:40:04.850Z,995.9
2015-09-23T05:41:04.789Z,996
2015-09-23T05:42:04.746Z,995.9
2015-09-23T05:43:04.685Z,995.9
2015-09-23T05:44:04.657Z,995.8
2015-09-23T05:45:04.597Z,995.8
2015-09-23T05:46:04.537Z,996
2015-09-23T05:47:04.509Z,996
2015-09-23T05:48:04.433Z,996
2015-09-23T05:49:04.389Z,996.1
2015-09-23T05:50:04.346Z,996.1
2015-09-23T05:51:04.301Z,996
2015-09-23T05:52:03.726Z,996.1
2015-09-23T05:53:04.197Z,996.2
2015-09-23T05:54:04.168Z,996.2
2015-09-23T05:55:04.531Z,996.3
2015-09-23T05:56:04.065Z,996.4
2015-09-23T05:57:04.224Z,996.5
2015-09-23T05:58:03.946Z,996.5
2015-09-23T05:59:03.885Z,996.5
2015-09-23T06:00:03.841Z,996.5
2015-09-23T06:01:03.783Z,996.5
2015-09-23T06:02:03.755Z,996.5
2015-09-23T06:03:04.132Z,996.5
2015-09-23T06:04:03.666Z,996.3
2015-09-23T06:05:03.590Z,996.3
2015-09-23T06:06:03.546Z,996.4
2015-09-23T06:07:03.502Z,996.4
2015-09-23T06:08:03.458Z,996.4
2015-09-23T06:09:03.399Z,996.5
2015-09-23T06:10:03.354Z,996.4
2015-09-23T06:11:03.731Z,996.4
2015-09-23T06:12:03.250Z,996.4
2015-09-23T06:13:03.425Z,996.3
2015-09-23T06:14:03.146Z,996.3
2015-09-23T06:15:03.087Z,996.2
2015-09-23T06:16:03.058Z,996.2
2015-09-23T06:17:02.998Z,996.3
2015-09-23T06:18:02.938Z,996.4
2015-09-23T06:19:02.894Z,996.3
2015-09-23T06:20:02.834Z,996.3
2015-09-23T06:21:02.040Z,996.3
2015-09-23T06:22:02.746Z,996.4
2015-09-23T06:23:01.937Z,996.5
2015-09-23T06:24:02.642Z,996.6
2015-09-23T06:25:02.832Z,996.5
2015-09-23T06:26:02.569Z,996.6
2015-09-23T06:27:02.494Z,996.7
2015-09-23T06:28:02.450Z,996.7
2015-09-23T06:29:02.405Z,996.7
2015-09-23T06:30:02.346Z,996.6
2015-09-23T06:31:02.287Z,996.8
2015-09-23T06:32:02.258Z,996.6
2015-09-23T06:33:02.620Z,996.7
2015-09-23T06:34:02.153Z,996.5
2015-09-23T06:35:02.094Z,996.6
2015-09-23T06:36:02.050Z,996.7
2015-09-23T06:37:01.989Z,996.5
2015-09-23T06:38:01.945Z,996.6
2015-09-23T06:39:01.902Z,996.7
2015-09-23T06:40:01.842Z,996.9
2015-09-23T06:41:01.798Z,996.8
2015-09-23T06:42:01.770Z,996.8
2015-09-23T06:43:01.694Z,996.8
2015-09-23T06:44:01.650Z,996.8
2015-09-23T06:45:01.839Z,996.9
2015-09-23T06:46:01.561Z,996.9
2015-09-23T06:47:01.502Z,996.9
2015-09-23T06:48:01.441Z,996.9
2015-09-23T06:49:01.397Z,996.9
2015-09-23T06:50:01.197Z,997
2015-09-23T06:51:01.294Z,997
2015-09-23T06:52:01.483Z,997
2015-09-23T06:53:01.187Z,997.1
2015-09-23T06:54:01.143Z,997.2
2015-09-23T06:55:01.098Z,997
2015-09-23T06:56:01.039Z,997.3
2015-09-23T06:57:01.010Z,997.1
2015-09-23T06:58:00.950Z,997.2
2015-09-23T06:59:00.907Z,997.1
2015-09-23T07:00:01.034Z,997.2
2015-09-23T07:01:00.802Z,997.2
2015-09-23T07:02:00.946Z,997.3
2015-09-23T07:03:00.698Z,997.3
2015-09-23T07:04:00.638Z,997.2
2015-09-23T07:05:00.970Z,997.2
2015-09-23T07:06:00.566Z,997.2
2015-09-23T07:06:59.757Z,997.2
2015-09-23T07:08:00.446Z,997.3
2015-09-23T07:09:00.621Z,997.5
2015-09-23T07:10:00.358Z,997.3
2015-09-23T07:11:00.282Z,997.5
2015-09-23T07:12:00.239Z,997.5
2015-09-23T07:13:00.382Z,997.3
2015-09-23T07:14:00.150Z,997.3
2015-09-23T07:15:00.090Z,997.4
2015-09-23T07:16:00.046Z,997.4
2015-09-23T07:17:00.003Z,997.5
2015-09-23T07:18:00.177Z,997.5
2015-09-23T07:18:59.898Z,997.6
2015-09-23T07:19:59.839Z,997.5
2015-09-23T07:20:59.795Z,997.5
2015-09-23T07:21:59.984Z,997.6
2015-09-23T07:22:59.706Z,997.5
2015-09-23T07:23:59.631Z,997.6
2015-09-23T07:24:59.602Z,997.5
2015-09-23T07:25:59.542Z,997.6
2015-09-23T07:26:59.498Z,997.6
2015-09-23T07:27:59.439Z,997.6
2015-09-23T07:28:59.395Z,997.5
2015-09-23T07:29:59.335Z,997.5
2015-09-23T07:30:59.306Z,997.5
2015-09-23T07:31:59.247Z,997.7
2015-09-23T07:32:59.186Z,997.5
2015-09-23T07:33:59.142Z,997.6
2015-09-23T07:34:59.083Z,997.6
2015-09-23T07:35:59.055Z,997.6
2015-09-23T07:36:59.011Z,997.8
2015-09-23T07:37:58.936Z,997.7
2015-09-23T07:38:58.891Z,997.7
2015-09-23T07:39:58.830Z,997.7
2015-09-23T07:40:58.786Z,997.7
2015-09-23T07:41:58.727Z,997.7
2015-09-23T07:42:58.683Z,997.8
2015-09-23T07:43:58.622Z,997.7
2015-09-23T07:44:58.782Z,997.8
2015-09-23T07:45:58.535Z,997.8
2015-09-23T07:46:58.475Z,997.7
2015-09-23T07:47:58.430Z,997.8
2015-09-23T07:48:58.371Z,997.8
2015-09-23T07:49:58.327Z,997.7
2015-09-23T07:50:58.282Z,997.8
2015-09-23T07:51:58.426Z,997.9
2015-09-23T07:52:58.176Z,997.8
2015-09-23T07:53:58.116Z,997.8
2015-09-23T07:54:58.072Z,997.9
2015-09-23T07:55:58.021Z,997.9
2015-09-23T07:56:57.976Z,997.9
2015-09-23T07:57:57.932Z,997.9
2015-09-23T07:58:57.872Z,998
2015-09-23T07:59:57.827Z,998
2015-09-23T08:00:58.002Z,998
2015-09-23T08:01:57.724Z,998
2015-09-23T08:02:57.665Z,998.1
2015-09-23T08:03:57.621Z,998
2015-09-23T08:04:57.576Z,998
2015-09-23T08:05:57.516Z,997.9
2015-09-23T08:06:57.487Z,998
2015-09-23T08:07:57.428Z,998
2015-09-23T08:08:57.384Z,998
2015-09-23T08:09:57.340Z,998.1
2015-09-23T08:10:57.280Z,998
2015-09-23T08:11:57.220Z,998
2015-09-23T08:12:57.192Z,998
2015-09-23T08:13:57.148Z,998.1
2015-09-23T08:14:57.072Z,998.1
2015-09-23T08:15:57.028Z,998.2
2015-09-23T08:16:56.983Z,998.3
2015-09-23T08:17:56.908Z,998.3
2015-09-23T08:18:56.864Z,998.2
2015-09-23T08:19:56.820Z,998.3
2015-09-23T08:20:56.775Z,998.4
2015-09-23T08:21:56.732Z,998.3
2015-09-23T08:22:56.673Z,998.3
2015-09-23T08:23:56.612Z,998.3
2015-09-23T08:24:56.568Z,998.3
2015-09-23T08:25:56.574Z,998.3
2015-09-23T08:26:56.468Z,998.4
2015-09-23T08:27:56.424Z,998.3
2015-09-23T08:28:56.365Z,998.3
2015-09-23T08:29:56.335Z,998.2
2015-09-23T08:30:56.260Z,998.3
2015-09-23T08:31:56.231Z,998.3
2015-09-23T08:32:56.172Z,998.4
2015-09-23T08:33:56.126Z,998.3
2015-09-23T08:34:56.061Z,998.4
2015-09-23T08:35:56.012Z,998.4
2015-09-23T08:36:55.948Z,998.5
2015-09-23T08:37:55.899Z,998.4
2015-09-23T08:38:55.836Z,998.6
2015-09-23T08:39:55.790Z,998.4
2015-09-23T08:40:55.730Z,998.4
2015-09-23T08:41:55.684Z,998.4
2015-09-23T08:42:55.638Z,998.4
2015-09-23T08:43:54.811Z,998.5
2015-09-23T08:44:55.564Z,998.5
2015-09-23T08:45:55.488Z,998.5
2015-09-23T08:46:55.413Z,998.5
2015-09-23T08:47:55.368Z,998.5
2015-09-23T08:48:55.323Z,998.5
2015-09-23T08:49:55.528Z,998.5
2015-09-23T08:50:55.219Z,998.6
2015-09-23T08:51:55.174Z,998.5
2015-09-23T08:52:55.114Z,998.6
2015-09-23T08:53:55.069Z,998.7
2015-09-23T08:54:55.026Z,998.6
2015-09-23T08:55:54.982Z,998.7
2015-09-23T08:56:54.921Z,998.5
2015-09-23T08:57:54.892Z,998.6
2015-09-23T08:58:55.020Z,998.8
2015-09-23T08:59:54.790Z,998.7
2015-09-23T09:00:54.729Z,998.8
2015-09-23T09:01:54.669Z,998.8
2015-09-23T09:02:54.687Z,998.8
2015-09-23T09:03:54.578Z,998.8
2015-09-23T09:04:54.518Z,998.8
2015-09-23T09:05:54.490Z,998.9
2015-09-23T09:06:54.431Z,998.8
2015-09-23T09:07:54.370Z,998.8
2015-09-23T09:08:54.326Z,998.8
2015-09-23T09:09:54.267Z,998.8
2015-09-23T09:10:54.222Z,998.7
2015-09-23T09:11:54.178Z,998.8
2015-09-23T09:12:54.134Z,998.8
2015-09-23T09:13:54.074Z,998.8
2015-09-23T09:14:54.030Z,998.8
2015-09-23T09:15:54.001Z,998.7
2015-09-23T09:16:53.926Z,998.8
2015-09-23T09:17:53.897Z,998.8
2015-09-23T09:18:53.822Z,998.8
2015-09-23T09:19:53.997Z,998.8
2015-09-23T09:20:53.719Z,998.8
2015-09-23T09:21:53.877Z,998.8
2015-09-23T09:22:53.864Z,998.8
2015-09-23T09:23:53.586Z,998.9
2015-09-23T09:24:53.542Z,998.9
2015-09-23T09:25:53.482Z,998.9
2015-09-23T09:26:53.438Z,998.8
2015-09-23T09:27:53.378Z,998.9
2015-09-23T09:28:53.334Z,998.9
2015-09-23T09:29:52.539Z,998.8
2015-09-23T09:30:53.683Z,998.9
2015-09-23T09:31:53.185Z,998.9
2015-09-23T09:32:53.126Z,999
2015-09-23T09:33:53.113Z,998.9
2015-09-23T09:34:53.037Z,999
2015-09-23T09:35:52.977Z,998.9
2015-09-23T09:36:52.933Z,999
2015-09-23T09:37:52.874Z,998.9
2015-09-23T09:38:52.845Z,998.9
2015-09-23T09:39:52.786Z,998.9
2015-09-23T09:40:52.741Z,998.9
2015-09-23T09:41:52.682Z,998.9
2015-09-23T09:42:52.496Z,998.9
2015-09-23T09:43:52.577Z,998.9
2015-09-23T09:44:52.549Z,999
2015-09-23T09:45:52.490Z,999.1
2015-09-23T09:46:52.445Z,999
2015-09-23T09:47:52.385Z,999.1
2015-09-23T09:48:52.341Z,999
2015-09-23T09:49:52.297Z,999
2015-09-23T09:50:52.254Z,999
2015-09-23T09:51:52.193Z,999
2015-09-23T09:52:52.149Z,998.9
2015-09-23T09:53:52.324Z,999
2015-09-23T09:54:52.046Z,999.1
2015-09-23T09:55:51.985Z,999
2015-09-23T09:56:51.957Z,999
2015-09-23T09:57:51.897Z,999.1
2015-09-23T09:58:52.040Z,999
2015-09-23T09:59:51.793Z,999
2015-09-23T10:00:51.733Z,999.1
2015-09-23T10:01:51.705Z,999
2015-09-23T10:02:51.629Z,999.1
2015-09-23T10:03:51.601Z,999.1
2015-09-23T10:04:51.557Z,999.1
2015-09-23T10:05:51.497Z,999
2015-09-23T10:06:51.453Z,999.1
2015-09-23T10:07:51.409Z,999
2015-09-23T10:08:51.349Z,999.1
2015-09-23T10:09:51.305Z,999.1
2015-09-23T10:10:51.245Z,999
2015-09-23T10:11:51.201Z,999.1
2015-09-23T10:12:51.141Z,999.1
2015-09-23T10:13:51.097Z,999.2
2015-09-23T10:14:51.034Z,999.2
2015-09-23T10:15:50.991Z,999
2015-09-23T10:16:50.930Z,999.1
2015-09-23T10:17:50.886Z,999.1
2015-09-23T10:18:51.077Z,999
2015-09-23T10:19:50.814Z,999
2015-09-23T10:20:50.739Z,999.1
2015-09-23T10:21:50.694Z,999
2015-09-23T10:22:50.635Z,999
2015-09-23T10:23:50.824Z,999
2015-09-23T10:24:50.547Z,999.2
2015-09-23T10:25:50.502Z,999
2015-09-23T10:26:50.458Z,999.1
2015-09-23T10:27:50.399Z,999
2015-09-23T10:28:50.354Z,999
2015-09-23T10:29:50.310Z,999
2015-09-23T10:30:50.250Z,999.1
2015-09-23T10:31:50.190Z,999
2015-09-23T10:32:50.147Z,999
2015-09-23T10:33:50.102Z,999
2015-09-23T10:34:50.057Z,998.9
2015-09-23T10:35:49.983Z,999.1
2015-09-23T10:36:49.969Z,999
2015-09-23T10:37:49.894Z,999
2015-09-23T10:38:49.849Z,999
2015-09-23T10:39:49.790Z,999
2015-09-23T10:40:49.747Z,999
2015-09-23T10:41:49.702Z,998.9
2015-09-23T10:42:49.893Z,998.9
2015-09-23T10:43:49.582Z,999
2015-09-23T10:44:49.538Z,999
2015-09-23T10:45:49.493Z,999
2015-09-23T10:46:49.466Z,999
2015-09-23T10:47:49.390Z,998.9
2015-09-23T10:48:49.346Z,999
2015-09-23T10:49:49.287Z,998.9
2015-09-23T10:50:49.242Z,999
2015-09-23T10:51:49.182Z,999
2015-09-23T10:52:49.138Z,999
2015-09-23T10:53:49.094Z,999.1
2015-09-23T10:54:49.035Z,999.2
2015-09-23T10:55:48.990Z,999.2
2015-09-23T10:56:49.009Z,999.3
2015-09-23T10:57:48.901Z,999.2
2015-09-23T10:58:48.858Z,999.1
2015-09-23T10:59:49.032Z,999
2015-09-23T11:00:48.739Z,999.1
2015-09-23T11:01:48.725Z,999.2
2015-09-23T11:02:48.650Z,999.2
2015-09-23T11:03:48.622Z,999.2
2015-09-23T11:04:48.608Z,999.2
2015-09-23T11:05:48.502Z,999.1
2015-09-23T11:06:48.645Z,999.2
2015-09-23T11:07:48.397Z,999
2015-09-23T11:08:48.339Z,999.1
2015-09-23T11:09:48.153Z,999.2
2015-09-23T11:10:48.250Z,999.2
2015-09-23T11:11:48.206Z,999.1
2015-09-23T11:12:48.147Z,999.3
2015-09-23T11:13:48.118Z,999.3
2015-09-23T11:14:48.057Z,999.4
2015-09-23T11:15:47.997Z,999.3
2015-09-23T11:16:47.953Z,999.4
2015-09-23T11:17:47.925Z,999.4
2015-09-23T11:18:47.847Z,999.4
2015-09-23T11:19:47.802Z,999.3
2015-09-23T11:20:47.758Z,999.4
2015-09-23T11:21:47.714Z,999.4
2015-09-23T11:22:47.655Z,999.3
2015-09-23T11:23:46.861Z,999.3
2015-09-23T11:24:47.551Z,999.4
2015-09-23T11:25:47.710Z,999.4
2015-09-23T11:26:47.447Z,999.3
2015-09-23T11:27:47.403Z,999.3
2015-09-23T11:28:47.593Z,999.3
2015-09-23T11:29:47.298Z,999.2
2015-09-23T11:30:47.270Z,999.3
2015-09-23T11:31:47.195Z,999.4
2015-09-23T11:32:47.166Z,999.4
2015-09-23T11:33:47.107Z,999.3
2015-09-23T11:34:47.062Z,999.5
2015-09-23T11:35:47.002Z,999.3
2015-09-23T11:36:46.974Z,999.3
2015-09-23T11:37:46.899Z,999.4
2015-09-23T11:38:46.870Z,999.4
2015-09-23T11:39:47.045Z,999.4
2015-09-23T11:40:47.000Z,999.3
2015-09-23T11:41:46.706Z,999.5
2015-09-23T11:42:46.662Z,999.6
2015-09-23T11:43:46.837Z,999.4
2015-09-23T11:44:46.558Z,999.5
2015-09-23T11:45:46.514Z,999.3
2015-09-23T11:46:46.642Z,999.5
2015-09-23T11:47:46.409Z,999.5
2015-09-23T11:48:46.351Z,999.3
2015-09-23T11:49:46.634Z,999.4
2015-09-23T11:50:46.278Z,999.4
2015-09-23T11:51:46.202Z,999.4
2015-09-23T11:52:46.159Z,999.5
2015-09-23T11:53:46.114Z,999.5
2015-09-23T11:54:46.054Z,999.5
2015-09-23T11:55:46.012Z,999.6
2015-09-23T11:56:46.154Z,999.5
2015-09-23T11:57:46.142Z,999.4
2015-09-23T11:58:45.848Z,999.5
2015-09-23T11:59:45.804Z,999.5
2015-09-23T12:00:45.743Z,999.5
2015-09-23T12:01:45.699Z,999.6
2015-09-23T12:02:44.906Z,999.7
2015-09-23T12:03:45.595Z,999.5
2015-09-23T12:04:45.567Z,999.6
2015-09-23T12:05:45.507Z,999.6
2015-09-23T12:06:45.462Z,999.5
2015-09-23T12:07:45.403Z,999.6
2015-09-23T12:08:45.359Z,999.6
2015-09-23T12:09:45.315Z,999.6
2015-09-23T12:10:45.255Z,999.5
2015-09-23T12:11:45.414Z,999.5
2015-09-23T12:12:45.151Z,999.4
2015-09-23T12:13:45.122Z,999.5
2015-09-23T12:14:45.063Z,999.4
2015-09-23T12:15:45.020Z,999.5
2015-09-23T12:16:44.975Z,999.6
2015-09-23T12:17:44.915Z,999.5
2015-09-23T12:18:44.871Z,999.5
2015-09-23T12:19:44.827Z,999.5
2015-09-23T12:20:44.767Z,999.5
2015-09-23T12:21:44.708Z,999.5
2015-09-23T12:22:44.678Z,999.4
2015-09-23T12:23:44.619Z,999.5
2015-09-23T12:24:44.575Z,999.6
2015-09-23T12:25:44.530Z,999.5
2015-09-23T12:26:44.471Z,999.5
2015-09-23T12:27:44.411Z,999.5
2015-09-23T12:28:44.367Z,999.5
2015-09-23T12:29:44.322Z,999.7
2015-09-23T12:30:44.278Z,999.6
2015-09-23T12:31:44.219Z,999.5
2015-09-23T12:32:44.190Z,999.7
2015-09-23T12:33:44.146Z,999.7
2015-09-23T12:34:44.068Z,999.6
2015-09-23T12:35:44.038Z,999.7
2015-09-23T12:36:43.980Z,999.8
2015-09-23T12:37:43.920Z,999.6
2015-09-23T12:38:43.876Z,999.8
2015-09-23T12:39:43.832Z,999.8
2015-09-23T12:40:43.849Z,999.8
2015-09-23T12:41:43.962Z,999.9
2015-09-23T12:42:43.683Z,999.8
2015-09-23T12:43:43.857Z,999.8
2015-09-23T12:44:43.595Z,999.7
2015-09-23T12:45:42.801Z,999.8
2015-09-23T12:46:43.476Z,999.8
2015-09-23T12:47:43.446Z,999.7
2015-09-23T12:48:43.621Z,999.8
2015-09-23T12:49:43.343Z,999.9
2015-09-23T12:50:43.284Z,999.9
2015-09-23T12:51:43.240Z,1000
2015-09-23T12:52:43.320Z,999.9
2015-09-23T12:53:43.354Z,1000.1
2015-09-23T12:54:43.106Z,999.9
2015-09-23T12:55:43.062Z,1000
2015-09-23T12:56:43.018Z,1000
2015-09-23T12:57:42.974Z,1000
2015-09-23T12:58:42.898Z,1000.1
2015-09-23T12:59:42.870Z,1000
2015-09-23T13:00:42.794Z,1000